Main page
METAR-TAF:

METAR-TAF

Airports :

Wahoo Municipal Airport

Wahoo, Nebraska, United States

latitude: 41-14-26N, longitude: 096-35-40W, elevation: 1223 ft

Current weather observation

The report was made 16 minutes ago, at 02:15 UTC
Wind 5 mph from the Northwest
Temperature 77°F
Humidity 89%
Pressure 29.96 in. Hg
Visibility: 10 miles
Clear sky

METAR: KAHQ 150215Z AUTO 32004KT 10SM CLR 25/23 A2996 RMK AO2 T02450229

Time: 21:31 (02:31 UTC)


TAF: missing

Weather observations and forecasts of more than 4000 airports (METAR and TAF reports).

The available stations are represented by yellow and red dots on the map.

Hover mouse over dot to see the name of the station.

Then click to see weather observations and forecasts.

To change the map : click on the green buttons with a black cross to zoom in, on the green button with a dash to zoom out, or on the green arrows for adjacent maps.


METAR-TAF: